Time;durP1;ratioP1;P1;durP2;ratioP2;P2;SDS_P1;SDS_P2;PMS_P1;PMS_P2;Temp;Humidity;BMP_temperature;BMP_pressure;BME280_temperature;BME280_humidity;BME280_pressure;Samples;Min_cycle;Max_cycle;Signal;HPM_P1;HPM_P2
2022/03/01 00:02:24;;;;;;;16.67;9.20;;;6.70;99.90;;;;;;5017036;28;20029;-85
2022/03/01 00:04:51;;;;;;;13.85;8.57;;;6.70;99.90;;;;;;5038319;28;20052;-85
2022/03/01 00:07:17;;;;;;;14.30;8.98;;;6.70;99.90;;;;;;5053400;28;20025;-85
2022/03/01 00:09:42;;;;;;;12.75;8.98;;;6.70;99.90;;;;;;5053357;28;20029;-85
2022/03/01 00:12:08;;;;;;;13.73;8.63;;;6.70;99.90;;;;;;5053169;28;20065;-85
2022/03/01 00:14:34;;;;;;;14.63;8.70;;;6.60;99.90;;;;;;5053280;28;20025;-85
2022/03/01 00:17:00;;;;;;;14.27;8.88;;;6.60;99.90;;;;;;5053208;28;20119;-85
2022/03/01 00:19:28;;;;;;;14.90;8.70;;;6.60;99.90;;;;;;5053151;28;20021;-85
2022/03/01 00:21:54;;;;;;;15.15;8.18;;;6.60;99.90;;;;;;5052540;28;20056;-85
2022/03/01 00:24:20;;;;;;;16.20;9.57;;;6.60;99.90;;;;;;5053015;28;20033;-85
2022/03/01 00:26:46;;;;;;;13.02;9.02;;;6.60;99.90;;;;;;5052969;28;20087;-85
2022/03/01 00:29:12;;;;;;;16.30;9.07;;;6.60;99.90;;;;;;5054144;28;20033;-85
2022/03/01 00:31:37;;;;;;;13.90;8.80;;;6.60;99.90;;;;;;5053866;28;20368;-85
2022/03/01 00:34:04;;;;;;;14.07;8.85;;;6.60;99.90;;;;;;5054323;28;20021;-85
2022/03/01 00:36:30;;;;;;;13.77;8.68;;;6.60;99.90;;;;;;5052811;28;20028;-85
2022/03/01 00:38:56;;;;;;;15.90;9.60;;;6.50;99.90;;;;;;5052885;28;20021;-85
2022/03/01 00:41:21;;;;;;;18.45;10.93;;;6.50;99.90;;;;;;5052686;28;20021;-85
2022/03/01 00:43:47;;;;;;;18.00;9.95;;;6.50;99.90;;;;;;5052675;28;20017;-85
2022/03/01 00:46:12;;;;;;;19.95;10.80;;;6.50;99.90;;;;;;5052582;28;20028;-86
2022/03/01 00:48:38;;;;;;;19.15;11.35;;;6.50;99.90;;;;;;5052586;28;20028;-86
2022/03/01 00:51:04;;;;;;;21.90;11.90;;;6.50;99.90;;;;;;5052428;28;20111;-85
2022/03/01 00:53:30;;;;;;;19.08;11.23;;;6.50;99.90;;;;;;5053632;28;20487;-85
2022/03/01 00:55:56;;;;;;;19.42;10.52;;;6.50;99.90;;;;;;5052453;28;20104;-85
2022/03/01 00:58:21;;;;;;;17.25;10.52;;;6.50;99.90;;;;;;5052337;28;20477;-85
2022/03/01 01:00:47;;;;;;;21.80;9.88;;;6.50;99.90;;;;;;5052345;28;20056;-86
2022/03/01 01:03:13;;;;;;;16.80;10.00;;;6.50;99.90;;;;;;5052303;28;20563;-85
2022/03/01 01:05:38;;;;;;;16.80;10.23;;;6.40;99.90;;;;;;5034312;28;20124;-85
2022/03/01 01:08:04;;;;;;;16.98;9.48;;;6.40;99.90;;;;;;5015941;28;20397;-86
2022/03/01 01:10:30;;;;;;;13.60;8.85;;;6.40;99.90;;;;;;5015885;28;20021;-85
2022/03/01 01:12:56;;;;;;;14.57;9.30;;;6.40;99.90;;;;;;5015704;28;20060;-85
2022/03/01 01:15:22;;;;;;;14.32;8.80;;;6.40;99.90;;;;;;5015813;28;20025;-85
2022/03/01 01:17:47;;;;;;;15.38;8.52;;;6.40;99.90;;;;;;5015722;28;20083;-85
2022/03/01 01:20:14;;;;;;;15.48;8.85;;;6.40;99.90;;;;;;5033461;28;20026;-85
2022/03/01 01:22:40;;;;;;;13.52;8.68;;;6.40;99.90;;;;;;5015647;28;20029;-85
2022/03/01 01:25:14;;;;;;;13.32;8.95;;;6.40;99.90;;;;;;5015677;28;20508;-85
2022/03/01 01:27:43;;;;;;;14.32;8.20;;;6.40;99.90;;;;;;5015580;28;20029;-85
2022/03/01 01:30:11;;;;;;;13.45;8.60;;;6.40;99.90;;;;;;5015552;28;20141;-84
2022/03/01 01:32:37;;;;;;;13.45;8.88;;;6.40;99.90;;;;;;5014563;28;20021;-85
2022/03/01 01:35:03;;;;;;;12.85;8.60;;;6.30;99.90;;;;;;5015722;28;20032;-84
2022/03/01 01:37:29;;;;;;;18.00;9.18;;;6.30;99.90;;;;;;5015449;28;20025;-85
2022/03/01 01:39:54;;;;;;;15.25;8.85;;;6.30;99.90;;;;;;5015407;28;20366;-85
2022/03/01 01:42:20;;;;;;;14.82;7.93;;;6.30;99.90;;;;;;5015431;28;20032;-85
2022/03/01 01:44:46;;;;;;;15.80;8.43;;;6.30;99.90;;;;;;5015357;28;20021;-85
2022/03/01 01:47:12;;;;;;;12.65;8.30;;;6.30;99.90;;;;;;5015326;28;20087;-85
2022/03/01 01:49:37;;;;;;;14.18;8.45;;;6.30;99.90;;;;;;5015313;28;20025;-85
2022/03/01 01:52:04;;;;;;;12.95;8.55;;;6.20;99.90;;;;;;5032906;28;20079;-86
2022/03/01 01:54:30;;;;;;;14.80;8.88;;;6.20;99.90;;;;;;5015321;28;20029;-85
2022/03/01 01:56:55;;;;;;;14.65;8.73;;;6.20;99.90;;;;;;5015394;28;20022;-85
2022/03/01 01:59:21;;;;;;;12.80;8.55;;;6.20;99.90;;;;;;5015318;28;20139;-85
2022/03/01 02:01:47;;;;;;;12.98;8.57;;;6.20;99.90;;;;;;5015230;28;20030;-85
2022/03/01 02:04:13;;;;;;;15.80;8.85;;;6.20;99.90;;;;;;5026172;28;20548;-85
2022/03/01 02:06:50;;;;;;;14.10;8.77;;;6.20;99.90;;;;;;5051667;28;20052;-85
2022/03/01 02:09:16;;;;;;;15.18;8.20;;;6.20;99.90;;;;;;5051550;28;20024;-85
2022/03/01 02:11:42;;;;;;;13.98;8.27;;;6.20;99.90;;;;;;5051439;28;20039;-85
2022/03/01 02:14:11;;;;;;;15.13;8.40;;;6.20;99.90;;;;;;5051506;28;20025;-85
2022/03/01 02:16:37;;;;;;;14.73;8.60;;;6.20;99.90;;;;;;5051464;28;20161;-85
2022/03/01 02:19:05;;;;;;;13.20;8.35;;;6.20;99.90;;;;;;5051397;28;20530;-85
2022/03/01 02:21:31;;;;;;;13.50;8.18;;;6.20;99.90;;;;;;5053225;28;20107;-85
2022/03/01 02:23:57;;;;;;;16.60;9.35;;;6.10;99.90;;;;;;5051386;28;20496;-85
2022/03/01 02:26:23;;;;;;;18.65;8.55;;;6.10;99.90;;;;;;5051363;28;20029;-85
2022/03/01 02:28:49;;;;;;;13.75;8.25;;;6.10;99.90;;;;;;5052665;28;20053;-85
2022/03/01 02:31:15;;;;;;;11.80;7.93;;;6.10;99.90;;;;;;5051350;28;20561;-85
2022/03/01 02:33:40;;;;;;;14.63;8.68;;;6.10;99.90;;;;;;5051659;28;20404;-85
2022/03/01 02:36:06;;;;;;;13.95;8.13;;;6.10;99.90;;;;;;5051322;28;20108;-85
2022/03/01 02:38:32;;;;;;;13.73;8.32;;;6.10;99.90;;;;;;5051389;28;20029;-86
2022/03/01 02:40:58;;;;;;;16.80;8.70;;;6.00;99.90;;;;;;5051672;28;20021;-85
2022/03/01 02:43:24;;;;;;;15.05;8.43;;;6.10;99.90;;;;;;5051821;28;20029;-85
2022/03/01 02:45:49;;;;;;;13.57;8.38;;;6.00;99.90;;;;;;5054823;28;20039;-86
2022/03/01 02:48:15;;;;;;;13.65;8.35;;;6.00;99.90;;;;;;5054803;28;20024;-86
2022/03/01 02:50:41;;;;;;;17.30;8.15;;;6.00;99.90;;;;;;5054839;28;20468;-86
2022/03/01 02:53:07;;;;;;;13.65;8.32;;;6.00;99.90;;;;;;5038156;28;20549;-85
2022/03/01 02:55:33;;;;;;;13.02;7.53;;;6.00;99.90;;;;;;5054781;28;20528;-86
2022/03/01 02:57:58;;;;;;;16.75;8.45;;;6.00;99.90;;;;;;5054719;28;20045;-86
2022/03/01 03:00:24;;;;;;;14.63;8.18;;;6.00;99.90;;;;;;5054688;28;20385;-85
2022/03/01 03:02:50;;;;;;;15.57;9.15;;;6.00;99.90;;;;;;5054683;28;20032;-86
2022/03/01 03:05:15;;;;;;;14.75;8.27;;;6.00;99.90;;;;;;5054335;28;20052;-85
2022/03/01 03:07:42;;;;;;;13.70;7.97;;;6.00;99.90;;;;;;5054744;28;20127;-85
2022/03/01 03:10:08;;;;;;;12.57;7.63;;;6.00;99.90;;;;;;5054755;28;20029;-86
2022/03/01 03:12:34;;;;;;;17.27;8.45;;;5.90;99.90;;;;;;5054296;28;20024;-85
2022/03/01 03:15:00;;;;;;;13.07;7.97;;;5.90;99.90;;;;;;5054359;28;20021;-85
2022/03/01 03:17:25;;;;;;;12.38;7.57;;;5.90;99.90;;;;;;5054321;28;20135;-85
2022/03/01 03:19:51;;;;;;;14.23;7.63;;;5.90;99.90;;;;;;5055580;28;20755;-86
2022/03/01 03:22:17;;;;;;;13.65;7.72;;;5.90;99.90;;;;;;5054138;28;20029;-86
2022/03/01 03:24:43;;;;;;;12.60;8.07;;;5.90;99.90;;;;;;5054173;28;20027;-86
2022/03/01 03:27:08;;;;;;;12.90;7.68;;;5.90;99.90;;;;;;5054071;28;20021;-86
2022/03/01 03:29:34;;;;;;;11.48;7.22;;;5.90;99.90;;;;;;5054060;28;20031;-85
2022/03/01 03:32:00;;;;;;;13.88;7.85;;;5.90;99.90;;;;;;5055036;28;20035;-86
2022/03/01 03:34:26;;;;;;;15.07;7.90;;;5.90;99.90;;;;;;5053947;28;20033;-86
2022/03/01 03:36:52;;;;;;;13.73;7.47;;;5.80;99.90;;;;;;5053944;28;20082;-85
2022/03/01 03:39:18;;;;;;;14.38;7.85;;;5.80;99.90;;;;;;5053882;28;20029;-85
2022/03/01 03:41:44;;;;;;;12.77;7.57;;;5.80;99.90;;;;;;5054150;28;20033;-86
2022/03/01 03:44:10;;;;;;;11.25;6.65;;;5.80;99.90;;;;;;5053783;28;20163;-85
2022/03/01 03:46:35;;;;;;;11.32;7.15;;;5.80;99.90;;;;;;5053724;28;20481;-86
2022/03/01 03:49:02;;;;;;;13.77;8.00;;;5.80;99.90;;;;;;5053714;28;20099;-86
2022/03/01 03:51:28;;;;;;;12.98;7.70;;;5.80;99.90;;;;;;5055127;28;20032;-85
2022/03/01 03:53:54;;;;;;;11.90;7.15;;;5.80;99.90;;;;;;5053521;28;20021;-85
2022/03/01 03:56:20;;;;;;;11.45;7.50;;;5.80;99.90;;;;;;5052720;28;20023;-86
2022/03/01 03:58:45;;;;;;;13.15;7.35;;;5.70;99.90;;;;;;5053527;28;20021;-85
2022/03/01 04:01:11;;;;;;;13.20;8.50;;;5.70;99.90;;;;;;5053462;28;20025;-86
2022/03/01 04:03:37;;;;;;;12.38;7.82;;;5.70;99.90;;;;;;5052985;28;20383;-86
2022/03/01 04:06:03;;;;;;;12.23;7.57;;;5.70;99.90;;;;;;5016954;28;20127;-86
2022/03/01 04:08:29;;;;;;;13.70;7.05;;;5.70;99.90;;;;;;5016904;28;20366;-86
2022/03/01 04:10:56;;;;;;;11.93;7.53;;;5.70;99.90;;;;;;5034585;28;20079;-86
2022/03/01 04:13:23;;;;;;;12.80;7.30;;;5.70;99.90;;;;;;5034712;28;20504;-86
2022/03/01 04:15:49;;;;;;;13.20;7.82;;;5.70;99.90;;;;;;5016822;28;20078;-85
2022/03/01 04:18:15;;;;;;;11.95;7.65;;;5.70;99.90;;;;;;5016755;28;20025;-86
2022/03/01 04:20:40;;;;;;;14.18;8.23;;;5.80;99.90;;;;;;5016719;28;20021;-86
2022/03/01 04:23:06;;;;;;;13.25;7.68;;;5.70;99.90;;;;;;5016532;28;20038;-86
2022/03/01 04:25:32;;;;;;;13.82;7.90;;;5.70;99.90;;;;;;5016555;28;20040;-86
2022/03/01 04:27:58;;;;;;;12.02;7.70;;;5.70;99.90;;;;;;5016495;28;20044;-86
2022/03/01 04:30:23;;;;;;;12.60;7.72;;;5.70;99.90;;;;;;5016509;28;20032;-86
2022/03/01 04:32:50;;;;;;;11.52;7.25;;;5.60;99.90;;;;;;5016462;28;20025;-86
2022/03/01 04:35:16;;;;;;;14.02;8.18;;;5.60;99.90;;;;;;5016362;28;20037;-86
2022/03/01 04:37:42;;;;;;;14.13;7.38;;;5.70;99.90;;;;;;5016720;28;20392;-86
2022/03/01 04:40:10;;;;;;;14.40;7.63;;;5.70;99.90;;;;;;5016324;28;20025;-85
2022/03/01 04:42:36;;;;;;;14.13;8.07;;;5.60;99.90;;;;;;5016285;28;20068;-86
2022/03/01 04:45:05;;;;;;;15.70;8.00;;;5.60;99.90;;;;;;5033975;28;20032;-86
2022/03/01 04:47:31;;;;;;;13.65;7.75;;;5.60;99.90;;;;;;5016219;28;20033;-86
2022/03/01 04:49:57;;;;;;;11.38;7.43;;;5.70;99.90;;;;;;5016173;28;20045;-86
2022/03/01 04:52:23;;;;;;;12.45;7.78;;;5.60;99.90;;;;;;5015930;28;20086;-86
2022/03/01 04:54:49;;;;;;;10.35;7.13;;;5.70;99.90;;;;;;5017104;28;20021;-86
2022/03/01 04:57:14;;;;;;;16.40;7.28;;;5.60;99.90;;;;;;5016530;28;20026;-86
2022/03/01 04:59:40;;;;;;;12.93;8.00;;;5.60;99.90;;;;;;5034481;28;20052;-86
2022/03/01 05:02:06;;;;;;;14.48;7.82;;;5.60;99.90;;;;;;5016082;28;20022;-87
2022/03/01 05:04:31;;;;;;;11.70;7.53;;;5.60;99.90;;;;;;5028006;28;20064;-86
2022/03/01 05:06:57;;;;;;;13.15;7.63;;;5.50;99.90;;;;;;5052763;28;20567;-86
2022/03/01 05:09:24;;;;;;;11.73;7.50;;;5.50;99.90;;;;;;5052593;28;20036;-86
2022/03/01 05:11:50;;;;;;;11.60;7.30;;;5.40;99.90;;;;;;5053553;28;20021;-86
2022/03/01 05:14:17;;;;;;;12.00;7.60;;;5.40;99.90;;;;;;5052144;28;20389;-86
2022/03/01 05:16:43;;;;;;;13.20;8.35;;;5.40;99.90;;;;;;5052111;28;20056;-86
2022/03/01 05:19:09;;;;;;;12.32;7.47;;;5.60;99.90;;;;;;5053284;28;20021;-86
2022/03/01 05:21:36;;;;;;;13.55;7.47;;;5.40;99.90;;;;;;5053595;28;20075;-85
2022/03/01 05:24:02;;;;;;;11.60;7.53;;;5.40;99.90;;;;;;5051961;28;20503;-86
2022/03/01 05:26:28;;;;;;;12.98;7.07;;;5.40;99.90;;;;;;5052025;28;20048;-86
2022/03/01 05:28:54;;;;;;;12.68;7.32;;;5.40;99.90;;;;;;5051925;28;20025;-85
2022/03/01 05:31:20;;;;;;;14.25;7.47;;;5.40;99.90;;;;;;5052313;28;20025;-86
2022/03/01 05:33:47;;;;;;;11.80;7.43;;;5.30;99.90;;;;;;5052940;28;20107;-85
2022/03/01 05:36:14;;;;;;;13.00;7.30;;;5.30;99.90;;;;;;5051828;28;20472;-86
2022/03/01 05:38:40;;;;;;;12.77;7.32;;;5.40;99.90;;;;;;5052388;28;20021;-86
2022/03/01 05:41:06;;;;;;;10.90;7.15;;;5.30;99.90;;;;;;5051897;28;20047;-86
2022/03/01 05:43:32;;;;;;;13.57;7.65;;;5.30;99.90;;;;;;5051857;28;20028;-86
2022/03/01 05:45:57;;;;;;;14.88;7.45;;;5.30;99.90;;;;;;5051790;28;20036;-86
2022/03/01 05:48:23;;;;;;;11.70;7.75;;;5.30;99.90;;;;;;5051968;28;20408;-86
2022/03/01 05:50:49;;;;;;;13.43;7.35;;;5.30;99.90;;;;;;5051650;28;20021;-85
2022/03/01 05:53:15;;;;;;;12.90;7.85;;;5.30;99.90;;;;;;5052753;28;20096;-85
2022/03/01 05:55:41;;;;;;;10.43;7.03;;;5.30;99.90;;;;;;5051806;28;20048;-85
2022/03/01 05:58:06;;;;;;;13.55;7.30;;;5.30;99.90;;;;;;5051693;28;20080;-85
2022/03/01 06:00:32;;;;;;;12.73;7.57;;;5.20;99.90;;;;;;5053214;28;20025;-86
2022/03/01 06:02:58;;;;;;;11.77;6.93;;;5.30;99.90;;;;;;5053377;28;20025;-85
2022/03/01 06:05:24;;;;;;;12.27;7.78;;;5.20;99.90;;;;;;5037793;28;20073;-86
2022/03/01 06:07:50;;;;;;;14.73;7.32;;;5.20;99.90;;;;;;5015260;28;20108;-86
2022/03/01 06:10:15;;;;;;;13.52;8.05;;;5.20;99.90;;;;;;5015115;28;20052;-85
2022/03/01 06:12:42;;;;;;;12.63;7.55;;;5.20;99.90;;;;;;5032731;28;20030;-86
2022/03/01 06:15:08;;;;;;;13.07;8.00;;;5.20;99.90;;;;;;5015123;28;20025;-85
2022/03/01 06:17:35;;;;;;;13.07;7.72;;;5.20;99.90;;;;;;5015132;28;20053;-86
2022/03/01 06:20:01;;;;;;;15.15;8.18;;;5.20;99.90;;;;;;5018196;28;20045;-86
2022/03/01 06:22:28;;;;;;;14.05;8.27;;;5.20;99.90;;;;;;5018983;28;20397;-85
2022/03/01 06:24:55;;;;;;;14.18;8.43;;;5.10;99.90;;;;;;5019247;28;20026;-86
2022/03/01 06:27:22;;;;;;;16.42;8.70;;;5.10;99.90;;;;;;5018940;28;20032;-85
2022/03/01 06:29:48;;;;;;;15.63;8.63;;;5.10;99.90;;;;;;5018959;28;20036;-86
2022/03/01 06:32:14;;;;;;;12.75;8.15;;;5.10;99.90;;;;;;5018698;28;20025;-85
2022/03/01 06:34:40;;;;;;;14.77;8.23;;;5.20;99.90;;;;;;5018686;28;20026;-85
2022/03/01 06:37:12;;;;;;;15.70;8.15;;;5.20;99.90;;;;;;5018640;28;20021;-85
2022/03/01 06:39:39;;;;;;;14.77;9.13;;;5.20;99.80;;;;;;5018683;28;20026;-85
2022/03/01 06:42:05;;;;;;;13.70;8.90;;;5.30;99.80;;;;;;5018596;28;20025;-85
2022/03/01 06:44:31;;;;;;;16.25;9.23;;;5.40;99.60;;;;;;5018648;28;20041;-85
2022/03/01 06:46:57;;;;;;;14.38;9.02;;;5.50;99.40;;;;;;5018781;28;20036;-86
2022/03/01 06:49:22;;;;;;;18.88;9.05;;;5.70;99.20;;;;;;5018611;28;20362;-85
2022/03/01 06:51:48;;;;;;;14.32;8.30;;;5.80;99.00;;;;;;5018422;28;20028;-85
2022/03/01 06:54:14;;;;;;;14.90;8.60;;;6.00;98.80;;;;;;5018599;28;20083;-85
2022/03/01 06:56:39;;;;;;;15.05;8.52;;;6.30;98.40;;;;;;5018810;28;20025;-86
2022/03/01 06:59:05;;;;;;;12.75;8.50;;;6.60;98.00;;;;;;5018614;28;20026;-85
2022/03/01 07:01:31;;;;;;;12.82;8.18;;;6.90;97.80;;;;;;5018526;28;20477;-85
2022/03/01 07:03:56;;;;;;;14.45;8.23;;;7.20;96.90;;;;;;5018033;28;20049;-86
2022/03/01 07:06:22;;;;;;;14.65;8.40;;;7.70;99.90;;;;;;5018320;28;20037;-85
2022/03/01 07:08:49;;;;;;;14.68;8.07;;;7.90;99.90;;;;;;5018186;28;20026;-85
2022/03/01 07:11:17;;;;;;;12.90;8.32;;;;;;;;;;5018174;28;20017;-85
2022/03/01 07:13:43;;;;;;;13.38;8.38;;;8.30;99.90;;;;;;5035779;28;20024;-85
2022/03/01 07:16:09;;;;;;;13.15;8.48;;;8.20;99.90;;;;;;5018103;28;20488;-85
2022/03/01 07:18:35;;;;;;;13.98;8.30;;;8.10;99.90;;;;;;5018064;28;20022;-85
2022/03/01 07:21:00;;;;;;;12.52;8.65;;;8.20;99.90;;;;;;5018838;28;20041;-85
2022/03/01 07:23:26;;;;;;;13.15;8.38;;;8.20;99.90;;;;;;5017854;28;20025;-85
2022/03/01 07:25:52;;;;;;;13.23;8.43;;;8.10;99.90;;;;;;5035636;28;20040;-85
2022/03/01 07:28:17;;;;;;;15.38;8.05;;;8.00;99.90;;;;;;5017904;28;20033;-84
2022/03/01 07:30:43;;;;;;;13.32;8.90;;;7.90;99.90;;;;;;5016555;28;20026;-84
2022/03/01 07:33:09;;;;;;;14.77;8.63;;;7.90;99.90;;;;;;5017695;28;20531;-84
2022/03/01 07:35:34;;;;;;;14.40;8.27;;;7.90;99.90;;;;;;5017714;28;20607;-84
2022/03/01 07:38:00;;;;;;;14.40;8.57;;;7.80;99.90;;;;;;5017755;28;20026;-84
2022/03/01 07:40:27;;;;;;;13.35;8.50;;;7.80;99.90;;;;;;5017683;28;20031;-84
2022/03/01 07:42:54;;;;;;;18.30;9.00;;;7.90;99.90;;;;;;5035286;28;20497;-84
2022/03/01 07:45:20;;;;;;;12.55;8.55;;;7.90;99.90;;;;;;5017515;28;20029;-83
2022/03/01 07:47:46;;;;;;;15.93;8.88;;;7.90;99.90;;;;;;5017471;28;20025;-83
2022/03/01 07:50:12;;;;;;;15.35;8.57;;;7.90;99.90;;;;;;5017451;28;20279;-83
2022/03/01 07:52:38;;;;;;;15.20;7.75;;;8.00;99.90;;;;;;5034980;28;20374;-83
2022/03/01 07:55:05;;;;;;;13.90;8.38;;;8.10;99.90;;;;;;5017307;28;20041;-83
2022/03/01 07:57:31;;;;;;;14.88;8.65;;;8.00;99.90;;;;;;5017276;28;20053;-84
2022/03/01 07:59:56;;;;;;;18.15;8.75;;;8.10;99.90;;;;;;5035251;28;20045;-84
2022/03/01 08:02:22;;;;;;;14.75;9.10;;;8.10;99.90;;;;;;5034913;28;20040;-83
2022/03/01 08:04:48;;;;;;;13.60;8.60;;;8.10;99.90;;;;;;5034788;28;20410;-84
2022/03/01 08:07:14;;;;;;;12.70;8.48;;;8.10;99.90;;;;;;5017070;28;20026;-84
2022/03/01 08:09:40;;;;;;;16.15;8.65;;;8.20;99.90;;;;;;5034828;28;20029;-84
2022/03/01 08:12:07;;;;;;;15.07;8.60;;;8.10;99.90;;;;;;5016993;28;20159;-84
2022/03/01 08:14:34;;;;;;;14.27;8.60;;;8.10;99.90;;;;;;5034668;28;20109;-84
2022/03/01 08:17:00;;;;;;;14.77;8.45;;;8.20;99.90;;;;;;5016939;28;20026;-84
2022/03/01 08:19:26;;;;;;;15.32;8.63;;;8.20;99.90;;;;;;5016822;28;20029;-84
2022/03/01 08:21:52;;;;;;;13.77;8.30;;;8.20;99.90;;;;;;5016866;28;20532;-84
2022/03/01 08:24:18;;;;;;;13.77;7.57;;;8.20;99.90;;;;;;5016779;28;20511;-84
2022/03/01 08:26:44;;;;;;;16.80;8.10;;;8.20;99.90;;;;;;5016700;28;20025;-84
2022/03/01 08:29:09;;;;;;;15.70;8.00;;;8.30;99.90;;;;;;5016681;28;20025;-83
2022/03/01 08:31:39;;;;;;;13.90;8.55;;;8.30;99.90;;;;;;5016563;28;20084;-84
2022/03/01 08:34:05;;;;;;;14.02;8.13;;;8.30;99.90;;;;;;5017088;28;20079;-83
2022/03/01 08:36:31;;;;;;;12.95;8.13;;;8.30;99.90;;;;;;5034569;28;20076;-83
2022/03/01 08:38:57;;;;;;;13.15;8.35;;;8.30;99.90;;;;;;5016516;28;20045;-83
2022/03/01 08:41:23;;;;;;;16.02;8.45;;;8.30;99.90;;;;;;5016152;28;20034;-83
2022/03/01 08:43:49;;;;;;;15.93;8.57;;;8.40;99.90;;;;;;5016397;28;20029;-83
2022/03/01 08:46:15;;;;;;;14.25;8.32;;;8.40;99.90;;;;;;5016331;28;20067;-83
2022/03/01 08:48:40;;;;;;;16.60;8.90;;;8.40;99.90;;;;;;5016393;28;20124;-83
2022/03/01 08:51:06;;;;;;;16.40;8.30;;;8.40;99.90;;;;;;5034023;28;20030;-83
2022/03/01 08:53:33;;;;;;;12.95;7.97;;;8.50;99.90;;;;;;5033858;28;20048;-83
2022/03/01 08:55:59;;;;;;;13.40;7.82;;;8.40;99.90;;;;;;5016197;28;20021;-83
2022/03/01 08:58:26;;;;;;;15.60;8.35;;;8.40;99.90;;;;;;5016181;28;20028;-83
2022/03/01 09:00:52;;;;;;;13.18;8.43;;;8.40;99.90;;;;;;5016054;28;20022;-82
2022/03/01 09:03:18;;;;;;;12.32;7.88;;;8.40;99.90;;;;;;5016030;28;20036;-83
2022/03/01 09:05:44;;;;;;;11.60;7.88;;;8.40;99.90;;;;;;5047710;28;20439;-83
2022/03/01 09:08:13;;;;;;;15.15;8.00;;;8.40;99.90;;;;;;5052750;28;20082;-84
2022/03/01 09:10:40;;;;;;;12.93;7.60;;;8.40;99.90;;;;;;5053618;28;20029;-83
2022/03/01 09:13:06;;;;;;;13.80;7.93;;;8.40;99.90;;;;;;5052247;28;20032;-83
2022/03/01 09:15:32;;;;;;;14.43;7.57;;;8.40;99.90;;;;;;5053546;28;20017;-82
2022/03/01 09:18:03;;;;;;;15.95;8.25;;;8.50;99.90;;;;;;5052241;28;20013;-82
2022/03/01 09:20:30;;;;;;;12.40;7.75;;;8.50;99.90;;;;;;5052247;28;20066;-82
2022/03/01 09:22:57;;;;;;;17.17;8.30;;;8.50;99.90;;;;;;5052201;28;20507;-82
2022/03/01 09:25:23;;;;;;;13.05;7.45;;;8.50;99.90;;;;;;5052166;28;20484;-82
2022/03/01 09:27:49;;;;;;;12.00;7.95;;;8.60;99.80;;;;;;5052106;28;20029;-82
2022/03/01 09:30:16;;;;;;;16.13;8.10;;;8.60;99.60;;;;;;5052319;28;20111;-82
2022/03/01 09:32:42;;;;;;;19.10;7.53;;;8.70;99.60;;;;;;5052006;28;20024;-82
2022/03/01 09:35:09;;;;;;;14.07;8.23;;;8.70;99.50;;;;;;5052028;28;20025;-82
2022/03/01 09:37:35;;;;;;;12.52;7.75;;;8.60;99.40;;;;;;5051993;28;20079;-82
2022/03/01 09:40:02;;;;;;;12.82;7.57;;;8.70;99.40;;;;;;5051966;28;20468;-82
2022/03/01 09:42:28;;;;;;;12.82;7.40;;;8.70;99.20;;;;;;5053172;28;20083;-82
2022/03/01 09:44:55;;;;;;;14.18;7.85;;;8.70;99.20;;;;;;5051919;28;20029;-83
2022/03/01 09:47:21;;;;;;;13.93;8.10;;;8.70;99.20;;;;;;5053160;28;20473;-83
2022/03/01 09:49:48;;;;;;;13.55;7.97;;;8.80;99.00;;;;;;5051856;28;20370;-84
2022/03/01 09:52:14;;;;;;;11.45;7.10;;;8.70;98.90;;;;;;5051649;28;20098;-81
2022/03/01 09:54:42;;;;;;;11.50;7.32;;;8.80;99.00;;;;;;5054540;28;20048;-81
2022/03/01 09:57:11;;;;;;;11.30;7.35;;;8.80;98.70;;;;;;5055970;28;20545;-82
2022/03/01 09:59:36;;;;;;;11.93;7.60;;;8.80;98.80;;;;;;5055907;28;20024;-81
2022/03/01 10:02:02;;;;;;;14.02;7.13;;;8.80;98.60;;;;;;5055843;28;20029;-82
2022/03/01 10:04:28;;;;;;;12.52;6.85;;;8.90;98.50;;;;;;5055631;28;20103;-82
2022/03/01 10:06:54;;;;;;;14.40;7.50;;;8.90;98.60;;;;;;5055787;28;20116;-82
2022/03/01 10:09:21;;;;;;;12.95;7.40;;;8.90;98.80;;;;;;5055798;28;20033;-82
2022/03/01 10:11:48;;;;;;;12.65;7.65;;;8.90;98.40;;;;;;5056907;28;20083;-82
2022/03/01 10:14:15;;;;;;;10.68;6.47;;;8.90;98.40;;;;;;5057249;28;20025;-81
2022/03/01 10:16:45;;;;;;;12.73;7.18;;;9.00;98.40;;;;;;5055611;28;20112;-82
2022/03/01 10:19:22;;;;;;;10.45;6.72;;;9.00;98.20;;;;;;5055605;28;20021;-82
2022/03/01 10:21:49;;;;;;;14.57;6.97;;;9.00;98.10;;;;;;5055534;28;20086;-81
2022/03/01 10:24:20;;;;;;;12.00;6.75;;;9.00;98.30;;;;;;5056810;28;20420;-82
2022/03/01 10:26:45;;;;;;;11.32;7.00;;;9.00;98.00;;;;;;5056716;28;20029;-82
2022/03/01 10:29:11;;;;;;;10.50;6.85;;;9.00;98.20;;;;;;5055396;28;20071;-82
2022/03/01 10:31:37;;;;;;;11.95;7.03;;;9.10;98.10;;;;;;5055317;28;20507;-82
2022/03/01 10:34:07;;;;;;;13.00;6.65;;;9.10;98.20;;;;;;5055302;28;20025;-82
2022/03/01 10:36:34;;;;;;;11.90;6.47;;;9.10;98.10;;;;;;5055263;28;20025;-82
2022/03/01 10:39:08;;;;;;;11.43;7.03;;;9.10;97.90;;;;;;5055206;28;20017;-82
2022/03/01 10:41:37;;;;;;;11.23;6.80;;;9.10;97.90;;;;;;5056350;28;20028;-81
2022/03/01 10:44:05;;;;;;;11.90;6.70;;;9.10;97.70;;;;;;5055104;28;20625;-82
2022/03/01 10:46:38;;;;;;;15.00;6.55;;;9.20;97.60;;;;;;5055071;28;20021;-82
2022/03/01 10:49:16;;;;;;;12.25;6.65;;;9.10;97.70;;;;;;5055068;28;20500;-81
2022/03/01 10:52:03;;;;;;;10.52;6.50;;;9.10;97.50;;;;;;5056149;28;20056;-82
2022/03/01 10:54:33;;;;;;;11.85;6.72;;;9.10;97.60;;;;;;5054987;28;20028;-82
2022/03/01 10:57:01;;;;;;;11.77;6.72;;;9.20;97.60;;;;;;5056499;28;20028;-82
2022/03/01 10:59:32;;;;;;;16.42;6.45;;;9.20;97.30;;;;;;5054831;28;20048;-82
2022/03/01 11:01:58;;;;;;;9.68;6.40;;;9.30;97.40;;;;;;5054854;28;20481;-81
2022/03/01 11:04:25;;;;;;;12.02;6.80;;;9.30;97.40;;;;;;5049041;28;20048;-81
2022/03/01 11:06:56;;;;;;;12.18;6.60;;;9.30;97.40;;;;;;5036001;28;20109;-81
2022/03/01 11:09:25;;;;;;;9.85;6.35;;;9.30;97.20;;;;;;5035984;28;20079;-82
2022/03/01 11:11:53;;;;;;;10.73;6.20;;;9.30;97.00;;;;;;5018143;28;20070;-81
2022/03/01 11:14:31;;;;;;;11.25;6.43;;;9.40;97.10;;;;;;5018152;28;20017;-82
2022/03/01 11:17:11;;;;;;;9.55;6.35;;;9.40;97.20;;;;;;5018158;28;20022;-81
2022/03/01 11:19:55;;;;;;;10.70;6.38;;;9.40;96.90;;;;;;5018036;28;20022;-83
2022/03/01 11:22:42;;;;;;;13.67;6.17;;;9.40;96.90;;;;;;5035817;28;20096;-82
2022/03/01 11:25:18;;;;;;;16.35;6.93;;;9.40;96.80;;;;;;5018040;28;20083;-83
2022/03/01 11:27:46;;;;;;;9.77;6.07;;;9.40;96.90;;;;;;5017914;28;20036;-82
2022/03/01 11:30:13;;;;;;;12.45;6.32;;;9.50;96.60;;;;;;5017848;28;20037;-82
2022/03/01 11:32:42;;;;;;;11.65;6.00;;;9.50;96.70;;;;;;5017642;28;20031;-83
2022/03/01 11:35:15;;;;;;;11.60;5.45;;;9.50;96.30;;;;;;5017730;28;20021;-82
2022/03/01 11:37:44;;;;;;;11.77;5.82;;;9.50;96.30;;;;;;5035551;28;20021;-83
2022/03/01 11:40:20;;;;;;;8.20;5.25;;;9.60;96.30;;;;;;5035378;28;20040;-83
2022/03/01 11:42:48;;;;;;;9.65;6.20;;;9.60;96.10;;;;;;5017664;28;20435;-82
2022/03/01 11:45:15;;;;;;;8.75;5.82;;;9.60;95.70;;;;;;5035295;28;20018;-82
2022/03/01 11:47:41;;;;;;;10.90;6.05;;;9.60;95.60;;;;;;5017479;28;20029;-82
2022/03/01 11:50:16;;;;;;;8.80;5.88;;;9.60;95.90;;;;;;5017457;28;20508;-82
2022/03/01 11:52:54;;;;;;;9.30;5.53;;;9.60;96.10;;;;;;5035046;28;20409;-82
2022/03/01 11:55:22;;;;;;;11.40;5.43;;;9.60;96.00;;;;;;5033865;28;20028;-82
2022/03/01 11:57:51;;;;;;;14.30;6.28;;;9.60;96.00;;;;;;5035078;28;20021;-82
2022/03/01 12:00:18;;;;;;;9.48;5.57;;;9.60;95.90;;;;;;5017641;28;20021;-82
2022/03/01 12:02:46;;;;;;;9.70;5.47;;;9.50;95.70;;;;;;5034973;28;20017;-82
2022/03/01 12:05:24;;;;;;;9.18;5.65;;;9.40;95.70;;;;;;5039914;28;20130;-82
2022/03/01 12:07:52;;;;;;;10.05;5.43;;;9.30;95.50;;;;;;5053615;28;20036;-82
2022/03/01 12:10:23;;;;;;;8.25;5.53;;;9.30;95.80;;;;;;5053455;28;20079;-82
2022/03/01 12:12:52;;;;;;;13.00;5.30;;;9.40;95.80;;;;;;5053401;28;20415;-81
2022/03/01 12:15:30;;;;;;;8.93;5.65;;;9.40;96.00;;;;;;5054697;28;20052;-82
2022/03/01 12:17:57;;;;;;;7.80;5.10;;;9.40;96.20;;;;;;5052707;28;20032;-82
2022/03/01 12:20:23;;;;;;;11.68;5.20;;;9.40;96.00;;;;;;5054566;28;20075;-81
2022/03/01 12:22:58;;;;;;;8.98;5.68;;;9.40;96.20;;;;;;5053186;28;20029;-83
2022/03/01 12:25:26;;;;;;;8.65;5.55;;;9.40;96.30;;;;;;5054078;28;20028;-82
2022/03/01 12:27:53;;;;;;;11.55;5.43;;;9.50;96.20;;;;;;5053166;28;20028;-81
2022/03/01 12:30:23;;;;;;;9.50;6.28;;;9.50;95.80;;;;;;5053125;28;20036;-82
2022/03/01 12:32:58;;;;;;;9.73;5.90;;;9.40;95.90;;;;;;5053044;28;20029;-82
2022/03/01 12:35:24;;;;;;;;;;;9.40;95.90;;;;;;5053433;28;20146;-83
2022/03/01 12:37:51;;;;;;;8.65;6.05;;;9.40;95.80;;;;;;5052973;28;19905;-83
2022/03/01 12:40:31;;;;;;;8.80;5.47;;;9.40;95.40;;;;;;5054198;28;20057;-82
2022/03/01 12:43:02;;;;;;;9.15;5.47;;;9.40;95.90;;;;;;5053190;28;20366;-82
2022/03/01 12:45:32;;;;;;;7.50;5.18;;;9.40;96.00;;;;;;5052809;28;20033;-83
2022/03/01 12:47:58;;;;;;;7.95;5.63;;;9.40;95.80;;;;;;5052741;28;20443;-81